Time;durP1;ratioP1;P1;durP2;ratioP2;P2;SDS_P1;SDS_P2;PMS_P1;PMS_P2;Temp;Humidity;BMP_temperature;BMP_pressure;BME280_temperature;BME280_humidity;BME280_pressure;Samples;Min_cycle;Max_cycle;Signal;HPM_P1;HPM_P2
2022/04/28 00:01:58;;;;;;;10.10;4.13;;;9.80;99.90;;;;;;5052366;28;20039;-77
2022/04/28 00:04:24;;;;;;;14.63;4.50;;;10.00;99.90;;;;;;5052144;28;20027;-77
2022/04/28 00:06:50;;;;;;;16.25;4.45;;;10.20;99.90;;;;;;5052127;28;20393;-77
2022/04/28 00:09:16;;;;;;;15.45;4.60;;;10.20;99.90;;;;;;5052494;28;20492;-77
2022/04/28 00:11:43;;;;;;;12.75;4.50;;;10.20;99.90;;;;;;5052517;28;20065;-76
2022/04/28 00:14:09;;;;;;;23.25;4.32;;;10.00;99.90;;;;;;5052394;28;20083;-77
2022/04/28 00:16:35;;;;;;;13.40;4.13;;;9.90;99.90;;;;;;5054441;28;20021;-77
2022/04/28 00:19:02;;;;;;;13.23;4.55;;;9.90;99.90;;;;;;5056247;28;20482;-76
2022/04/28 00:21:28;;;;;;;12.98;4.75;;;10.00;99.90;;;;;;5056146;28;20036;-76
2022/04/28 00:23:53;;;;;;;10.00;4.05;;;10.00;99.90;;;;;;5056047;28;20040;-75
2022/04/28 00:26:20;;;;;;;18.08;4.93;;;9.90;99.90;;;;;;5056098;28;20032;-76
2022/04/28 00:28:47;;;;;;;14.07;4.93;;;10.00;99.90;;;;;;5045598;28;20038;-77
2022/04/28 00:31:13;;;;;;;8.55;4.18;;;9.80;99.90;;;;;;5035253;28;20024;-77
2022/04/28 00:33:40;;;;;;;19.67;4.47;;;9.70;99.90;;;;;;5036189;28;20053;-76
2022/04/28 00:36:06;;;;;;;12.82;3.80;;;9.80;99.90;;;;;;5036067;28;20033;-76
2022/04/28 00:38:32;;;;;;;26.55;4.75;;;9.70;99.90;;;;;;5035955;28;20035;-77
2022/04/28 00:40:58;;;;;;;11.95;4.28;;;9.70;99.90;;;;;;5054681;28;20028;-76
2022/04/28 00:43:28;;;;;;;14.55;5.05;;;9.70;99.90;;;;;;5075821;28;20206;-76
2022/04/28 00:45:55;;;;;;;15.45;4.25;;;9.70;99.90;;;;;;5075787;28;20040;-77
2022/04/28 00:51:08;;;;;;;14.63;4.43;;;9.60;99.90;;;;;;5037497;28;20037;-77
2022/04/28 00:53:36;;;;;;;15.77;4.38;;;9.60;99.90;;;;;;5037957;28;20163;-75
2022/04/28 00:56:04;;;;;;;13.13;4.40;;;9.60;99.90;;;;;;5037668;28;20112;-76
2022/04/28 00:58:30;;;;;;;13.18;4.57;;;9.60;99.90;;;;;;5037771;28;20107;-77
2022/04/28 01:00:56;;;;;;;14.35;4.15;;;9.60;99.90;;;;;;5055342;28;20037;-75
2022/04/28 01:03:23;;;;;;;11.93;4.50;;;9.70;99.90;;;;;;5037522;28;20385;-76
2022/04/28 01:05:49;;;;;;;12.77;4.13;;;9.50;99.90;;;;;;5036924;28;20120;-77
2022/04/28 01:08:15;;;;;;;12.25;5.20;;;9.50;99.90;;;;;;5055528;28;20108;-77
2022/04/28 01:10:42;;;;;;;14.40;4.90;;;9.30;99.90;;;;;;5055313;28;20029;-74
2022/04/28 01:13:07;;;;;;;19.10;5.28;;;9.10;99.90;;;;;;5037378;28;20021;-77
2022/04/28 01:15:46;;;;;;;9.27;4.28;;;9.20;99.90;;;;;;5037381;28;20025;-77
2022/04/28 01:18:13;;;;;;;17.15;4.85;;;9.10;99.90;;;;;;5037310;28;20056;-77
2022/04/28 01:20:39;;;;;;;15.05;5.05;;;9.10;99.90;;;;;;5055035;28;20103;-77
2022/04/28 01:23:05;;;;;;;15.05;5.22;;;9.20;99.90;;;;;;5037273;28;20038;-76
2022/04/28 01:25:32;;;;;;;13.68;4.72;;;9.30;99.90;;;;;;5037131;28;20052;-75
2022/04/28 01:27:58;;;;;;;11.20;5.10;;;9.50;99.90;;;;;;5036066;28;20099;-76
2022/04/28 01:30:25;;;;;;;11.75;4.97;;;9.20;99.90;;;;;;5037005;28;20063;-76
2022/04/28 01:32:57;;;;;;;15.30;5.55;;;9.20;99.90;;;;;;5037029;28;20028;-76
2022/04/28 01:35:23;;;;;;;14.63;4.25;;;9.20;99.90;;;;;;5020280;28;20032;-76
2022/04/28 01:37:49;;;;;;;12.45;4.60;;;9.20;99.90;;;;;;5020656;28;20029;-76
2022/04/28 01:40:17;;;;;;;17.35;4.75;;;9.30;99.90;;;;;;5036829;28;20079;-75
2022/04/28 01:42:45;;;;;;;11.60;4.32;;;9.30;99.90;;;;;;5036784;28;20068;-77
2022/04/28 01:45:14;;;;;;;19.73;5.65;;;9.10;99.90;;;;;;5037086;28;20036;-76
2022/04/28 01:47:59;;;;;;;17.63;5.43;;;9.20;99.90;;;;;;5036313;28;20120;-74
2022/04/28 01:56:44;;;;;;;11.00;4.68;;;8.80;99.90;;;;;;5037612;28;20083;-74
2022/04/28 01:59:27;;;;;;;13.68;5.13;;;8.80;99.90;;;;;;5054516;28;20041;-74
2022/04/28 02:02:19;;;;;;;14.95;5.60;;;8.90;99.90;;;;;;5053942;28;20037;-75
2022/04/28 02:04:45;;;;;;;17.42;5.35;;;9.00;99.90;;;;;;5036304;28;20083;-77
2022/04/28 02:07:13;;;;;;;15.18;4.93;;;9.10;99.90;;;;;;5036256;28;20037;-77
2022/04/28 02:09:41;;;;;;;19.27;5.45;;;9.00;99.90;;;;;;5036505;28;20471;-77
2022/04/28 02:12:09;;;;;;;13.10;5.20;;;9.00;99.90;;;;;;5019638;28;20051;-76
2022/04/28 02:15:01;;;;;;;20.30;6.00;;;8.90;99.90;;;;;;5008519;28;20033;-77
2022/04/28 02:17:42;;;;;;;16.98;5.13;;;8.80;99.90;;;;;;5053994;28;20037;-77
2022/04/28 02:20:11;;;;;;;15.75;4.65;;;9.00;99.90;;;;;;5053926;28;20037;-77
2022/04/28 02:22:39;;;;;;;17.40;5.70;;;9.00;99.90;;;;;;5036061;28;20100;-77
2022/04/28 02:25:08;;;;;;;22.33;5.65;;;9.10;99.90;;;;;;5036065;28;20595;-77
2022/04/28 02:27:34;;;;;;;16.67;4.97;;;9.20;99.90;;;;;;5035765;28;20075;-77
2022/04/28 02:30:00;;;;;;;16.33;4.88;;;9.10;99.90;;;;;;5035939;28;20025;-77
2022/04/28 02:33:08;;;;;;;18.83;5.55;;;9.00;99.90;;;;;;5035726;28;20039;-77
2022/04/28 02:35:15;;;;;;;19.80;5.18;;;9.00;99.90;;;;;;5035866;28;20044;-77
2022/04/28 02:37:42;;;;;;;15.30;5.03;;;9.10;99.90;;;;;;5019285;28;20025;-76
2022/04/28 02:40:09;;;;;;;20.90;5.25;;;9.10;99.90;;;;;;5035385;28;20037;-77
2022/04/28 02:42:35;;;;;;;25.13;6.05;;;9.00;99.90;;;;;;5035897;28;20028;-77
2022/04/28 02:45:01;;;;;;;16.80;5.00;;;9.10;99.90;;;;;;5035521;28;20029;-77
2022/04/28 02:47:27;;;;;;;12.13;4.97;;;9.10;99.90;;;;;;5035315;28;20024;-76
2022/04/28 02:49:53;;;;;;;16.50;5.68;;;9.10;99.90;;;;;;5035728;28;20045;-77
2022/04/28 02:52:19;;;;;;;15.95;5.20;;;9.20;99.90;;;;;;5035568;28;20056;-75
2022/04/28 02:54:49;;;;;;;14.40;4.63;;;9.10;99.90;;;;;;5035510;28;20397;-75
2022/04/28 02:57:15;;;;;;;24.85;6.45;;;9.20;99.90;;;;;;5035425;28;20461;-75
2022/04/28 02:59:43;;;;;;;13.63;4.80;;;9.10;99.90;;;;;;5035460;28;20048;-76
2022/04/28 03:02:08;;;;;;;18.83;5.15;;;9.10;99.90;;;;;;5034889;28;20025;-74
2022/04/28 03:04:34;;;;;;;17.52;5.65;;;9.00;99.90;;;;;;5035281;28;20025;-75
2022/04/28 03:12:37;;;;;;;18.83;5.72;;;9.10;99.90;;;;;;5035216;28;20112;-73
2022/04/28 03:15:11;;;;;;;15.05;5.00;;;9.20;99.90;;;;;;5034790;28;20041;-74
2022/04/28 03:17:37;;;;;;;19.08;5.55;;;9.20;99.90;;;;;;5035168;28;20059;-73
2022/04/28 03:20:06;;;;;;;20.38;5.75;;;9.20;99.90;;;;;;5034986;28;20061;-73
2022/04/28 03:22:33;;;;;;;22.75;5.57;;;9.10;99.90;;;;;;5053018;28;20067;-74
2022/04/28 03:24:59;;;;;;;17.00;6.35;;;9.20;99.90;;;;;;5052950;28;20035;-74
2022/04/28 03:27:27;;;;;;;23.02;5.97;;;9.30;99.90;;;;;;5034949;28;20116;-74
2022/04/28 03:29:53;;;;;;;21.77;6.00;;;9.20;99.90;;;;;;5034573;28;20029;-76
2022/04/28 03:32:19;;;;;;;15.25;5.70;;;9.20;99.90;;;;;;5035118;28;20032;-76
2022/04/28 03:34:55;;;;;;;22.25;5.65;;;9.20;99.90;;;;;;5034928;28;20033;-75
2022/04/28 03:37:21;;;;;;;16.58;6.00;;;9.20;99.90;;;;;;5034985;28;20017;-75
2022/04/28 03:39:47;;;;;;;21.00;6.00;;;9.10;99.90;;;;;;5034702;28;20037;-75
2022/04/28 03:42:17;;;;;;;14.98;5.82;;;9.10;99.90;;;;;;5034767;28;20489;-75
2022/04/28 03:44:43;;;;;;;28.58;6.10;;;8.90;99.90;;;;;;5034579;28;20034;-75
2022/04/28 03:47:09;;;;;;;16.00;7.78;;;9.00;99.90;;;;;;5034776;28;20025;-74
2022/04/28 03:49:35;;;;;;;28.25;9.68;;;9.10;99.90;;;;;;5034788;28;20032;-75
2022/04/28 03:52:04;;;;;;;29.77;7.60;;;9.10;99.90;;;;;;5037722;28;20075;-74
2022/04/28 03:54:29;;;;;;;22.58;7.72;;;8.90;99.90;;;;;;5039183;28;20028;-75
2022/04/28 03:56:56;;;;;;;25.10;8.07;;;8.90;99.90;;;;;;5038831;28;20477;-76
2022/04/28 03:59:22;;;;;;;22.42;7.93;;;9.00;99.90;;;;;;5038287;28;20058;-75
2022/04/28 04:02:08;;;;;;;18.95;7.00;;;9.10;99.90;;;;;;5025034;28;20111;-74
2022/04/28 04:04:34;;;;;;;15.32;7.43;;;9.20;99.90;;;;;;5038414;28;20116;-73
2022/04/28 04:07:01;;;;;;;21.45;8.02;;;9.10;99.90;;;;;;5038408;28;20049;-77
2022/04/28 04:09:34;;;;;;;15.98;6.50;;;9.20;99.90;;;;;;5056440;28;20397;-76
2022/04/28 04:12:00;;;;;;;19.42;8.02;;;9.00;99.90;;;;;;5038463;28;20060;-76
2022/04/28 04:14:37;;;;;;;28.02;9.85;;;9.00;99.90;;;;;;5038407;28;20028;-75
2022/04/28 04:17:03;;;;;;;24.42;8.27;;;9.00;99.90;;;;;;5056344;28;20535;-75
2022/04/28 04:19:33;;;;;;;23.85;7.55;;;9.00;99.90;;;;;;5038435;28;20033;-76
2022/04/28 04:21:59;;;;;;;20.33;9.20;;;8.80;99.90;;;;;;5038408;28;20029;-75
2022/04/28 04:24:27;;;;;;;24.25;7.70;;;9.00;99.90;;;;;;5038365;28;20120;-77
2022/04/28 04:26:54;;;;;;;18.35;7.32;;;9.20;99.90;;;;;;5038599;28;20052;-75
2022/04/28 04:29:36;;;;;;;22.90;7.88;;;9.10;99.90;;;;;;5037680;28;20075;-77
2022/04/28 04:32:17;;;;;;;27.02;9.38;;;9.10;99.90;;;;;;5038169;28;20021;-75
2022/04/28 04:34:54;;;;;;;22.23;8.48;;;8.90;99.90;;;;;;5038168;28;20041;-76
2022/04/28 04:37:22;;;;;;;28.35;10.10;;;9.10;99.90;;;;;;5038081;28;20025;-77
2022/04/28 04:39:50;;;;;;;34.10;14.18;;;9.20;99.90;;;;;;5037899;28;20041;-77
2022/04/28 04:42:17;;;;;;;32.65;14.27;;;9.30;99.90;;;;;;5037623;28;20044;-74
2022/04/28 04:44:44;;;;;;;33.75;15.70;;;9.20;99.90;;;;;;5037901;28;20033;-77
2022/04/28 04:47:15;;;;;;;37.15;16.05;;;9.30;99.90;;;;;;5037845;28;20021;-76
2022/04/28 04:49:55;;;;;;;37.63;17.15;;;9.40;99.90;;;;;;5054369;28;20143;-76
2022/04/28 04:52:35;;;;;;;37.92;16.10;;;9.10;99.90;;;;;;5054562;28;20055;-76
2022/04/28 04:55:04;;;;;;;38.80;17.13;;;9.30;99.90;;;;;;5054518;28;20025;-76
2022/04/28 04:57:31;;;;;;;37.15;16.30;;;9.10;99.90;;;;;;5054230;28;20063;-76
2022/04/28 04:59:58;;;;;;;30.42;15.48;;;9.20;99.90;;;;;;5034674;28;20049;-77
2022/04/28 05:02:27;;;;;;;43.83;16.65;;;9.40;99.90;;;;;;5020204;28;20029;-76
2022/04/28 05:05:11;;;;;;;45.20;17.65;;;9.40;99.90;;;;;;5055194;28;20043;-77
2022/04/28 05:07:59;;;;;;;47.67;19.08;;;9.50;99.90;;;;;;5053956;28;20501;-77
2022/04/28 05:10:26;;;;;;;44.28;16.90;;;9.30;99.90;;;;;;5037932;28;20072;-77
2022/04/28 05:12:53;;;;;;;34.38;15.18;;;9.20;99.90;;;;;;5037253;28;20029;-76
2022/04/28 05:15:32;;;;;;;25.58;11.27;;;9.60;99.90;;;;;;5017569;28;20394;-77
2022/04/28 05:18:07;;;;;;;24.40;8.93;;;9.70;99.90;;;;;;5033667;28;20478;-76
2022/04/28 05:20:49;;;;;;;20.83;9.02;;;9.80;99.90;;;;;;5017436;28;20040;-77
2022/04/28 05:23:35;;;;;;;24.83;9.07;;;9.70;99.90;;;;;;5035307;28;20393;-77
2022/04/28 05:26:20;;;;;;;16.02;8.20;;;9.60;99.90;;;;;;5020000;28;20051;-75
2022/04/28 05:28:57;;;;;;;18.85;10.27;;;9.70;99.90;;;;;;5035352;28;20048;-76
2022/04/28 05:31:41;;;;;;;29.67;10.70;;;9.70;99.90;;;;;;5034135;28;20041;-76
2022/04/28 05:34:30;;;;;;;30.15;11.38;;;9.80;99.90;;;;;;5015536;28;20026;-77
2022/04/28 05:37:13;;;;;;;25.30;11.25;;;9.90;99.90;;;;;;5033545;28;20040;-77
2022/04/28 05:39:40;;;;;;;22.27;10.25;;;10.00;99.90;;;;;;5033416;28;20045;-76
2022/04/28 05:42:08;;;;;;;21.90;9.98;;;10.00;99.90;;;;;;5016611;28;20124;-76
2022/04/28 05:47:22;;;;;;;20.45;9.52;;;10.10;99.90;;;;;;5019921;28;20029;-76
2022/04/28 05:49:48;;;;;;;26.33;10.85;;;10.00;99.90;;;;;;5036847;28;20071;-76
2022/04/28 05:52:15;;;;;;;21.85;10.57;;;9.90;99.90;;;;;;5036633;28;20029;-75
2022/04/28 05:54:41;;;;;;;22.65;9.95;;;10.10;99.90;;;;;;5036371;28;20021;-75
2022/04/28 05:57:07;;;;;;;17.30;8.60;;;10.50;99.90;;;;;;5036426;28;20397;-76
2022/04/28 05:59:34;;;;;;;20.88;9.43;;;10.50;99.90;;;;;;5036352;28;20037;-76
2022/04/28 06:02:29;;;;;;;23.85;9.40;;;10.30;99.90;;;;;;5053337;28;20505;-75
2022/04/28 06:04:56;;;;;;;22.75;7.93;;;10.60;99.90;;;;;;5036428;28;20543;-75
2022/04/28 06:07:22;;;;;;;23.70;8.57;;;10.50;99.90;;;;;;5035753;28;20029;-75
2022/04/28 06:09:52;;;;;;;29.90;9.45;;;10.00;99.90;;;;;;5023959;28;20029;-76
2022/04/28 06:12:25;;;;;;;21.88;8.65;;;10.00;99.90;;;;;;5023150;28;20028;-75
2022/04/28 06:15:13;;;;;;;28.45;8.68;;;9.90;99.90;;;;;;5044181;28;20342;-75
2022/04/28 06:17:58;;;;;;;15.80;8.02;;;10.30;99.90;;;;;;5037476;28;20043;-76
2022/04/28 06:20:24;;;;;;;30.02;9.07;;;10.50;99.90;;;;;;5027157;28;20113;-75
2022/04/28 06:23:12;;;;;;;18.45;7.60;;;10.60;99.90;;;;;;5029400;28;20033;-74
2022/04/28 06:25:43;;;;;;;18.50;9.57;;;11.00;99.90;;;;;;5017801;28;20168;-75
2022/04/28 06:28:10;;;;;;;24.85;10.55;;;11.10;99.90;;;;;;5028917;28;20320;-75
2022/04/28 06:30:40;;;;;;;14.40;8.43;;;11.30;99.90;;;;;;5025005;28;20028;-76
2022/04/28 06:33:20;;;;;;;18.42;8.10;;;11.50;99.90;;;;;;5019801;28;20030;-74
2022/04/28 06:35:52;;;;;;;21.88;9.48;;;11.10;99.90;;;;;;5031817;28;20026;-76
2022/04/28 06:38:22;;;;;;;25.88;9.27;;;11.10;99.90;;;;;;5022292;28;20029;-75
2022/04/28 06:40:48;;;;;;;37.40;10.35;;;11.30;99.90;;;;;;5023464;28;20033;-76
2022/04/28 06:43:15;;;;;;;25.65;9.65;;;11.60;99.90;;;;;;5029995;28;20021;-75
2022/04/28 06:46:14;;;;;;;27.65;10.90;;;11.80;99.90;;;;;;5028283;28;20511;-75
2022/04/28 06:49:12;;;;;;;25.88;10.10;;;12.20;99.90;;;;;;5048320;28;20564;-76
2022/04/28 06:51:56;;;;;;;24.92;7.75;;;11.90;99.90;;;;;;5036816;28;20086;-75
2022/04/28 06:54:41;;;;;;;27.73;9.00;;;11.90;99.90;;;;;;5041585;28;20499;-76
2022/04/28 06:57:08;;;;;;;22.42;8.73;;;12.00;99.90;;;;;;5028686;28;20117;-75
2022/04/28 06:59:38;;;;;;;26.45;8.32;;;11.70;99.90;;;;;;5017996;28;20052;-76
2022/04/28 07:02:06;;;;;;;23.40;9.20;;;11.80;99.90;;;;;;5029222;28;20504;-76
2022/04/28 07:04:35;;;;;;;18.70;8.82;;;11.90;99.90;;;;;;5038582;28;20142;-76
2022/04/28 07:07:02;;;;;;;21.88;9.23;;;12.10;99.90;;;;;;5052506;28;20039;-75
2022/04/28 07:09:27;;;;;;;27.33;9.05;;;12.50;99.90;;;;;;5037217;28;20025;-76
2022/04/28 07:11:54;;;;;;;14.63;7.05;;;12.70;99.90;;;;;;5018393;28;20017;-75
2022/04/28 07:14:38;;;;;;;23.73;7.47;;;12.70;99.90;;;;;;5024584;28;20087;-76
2022/04/28 07:17:33;;;;;;;24.92;6.88;;;12.60;99.90;;;;;;5036907;28;20084;-75
2022/04/28 07:19:59;;;;;;;26.08;7.38;;;12.50;99.90;;;;;;5019235;28;20115;-76
2022/04/28 07:22:26;;;;;;;19.85;7.82;;;12.50;99.90;;;;;;5018874;28;20470;-78
2022/04/28 07:24:52;;;;;;;20.77;7.95;;;12.60;99.90;;;;;;5033283;28;20040;-77
2022/04/28 07:27:17;;;;;;;23.70;8.43;;;12.80;99.90;;;;;;5014122;28;20091;-79
2022/04/28 07:29:50;;;;;;;21.23;8.93;;;12.70;99.90;;;;;;5013184;28;20053;-79
2022/04/28 07:32:28;;;;;;;23.60;8.93;;;12.60;99.90;;;;;;5015219;28;20028;-78
2022/04/28 07:35:19;;;;;;;30.35;8.68;;;12.90;99.90;;;;;;5024235;28;20041;-77
2022/04/28 07:38:04;;;;;;;33.42;12.10;;;13.30;99.30;;;;;;5023917;28;20154;-78
2022/04/28 07:40:46;;;;;;;22.50;8.80;;;13.10;99.50;;;;;;5054983;28;20040;-77
2022/04/28 07:43:17;;;;;;;26.00;9.27;;;13.20;98.90;;;;;;5054547;28;20511;-77
2022/04/28 07:45:44;;;;;;;28.13;8.68;;;13.40;98.90;;;;;;5054833;28;20119;-77
2022/04/28 07:48:15;;;;;;;18.67;7.78;;;13.70;98.40;;;;;;5043690;28;20025;-78
2022/04/28 07:50:42;;;;;;;20.02;8.20;;;13.80;98.10;;;;;;5034437;28;20021;-77
2022/04/28 07:53:22;;;;;;;23.55;8.43;;;13.80;98.00;;;;;;5034572;28;20029;-78
2022/04/28 07:56:10;;;;;;;23.83;8.90;;;13.90;97.80;;;;;;5034644;28;20027;-79
2022/04/28 07:58:35;;;;;;;22.35;9.23;;;13.70;97.50;;;;;;5034551;28;20029;-78
2022/04/28 08:01:15;;;;;;;23.13;7.10;;;14.00;97.80;;;;;;5035385;28;20470;-78
2022/04/28 08:03:41;;;;;;;20.67;7.70;;;13.90;96.90;;;;;;5034500;28;20017;-78
2022/04/28 08:06:08;;;;;;;18.48;8.32;;;14.10;97.10;;;;;;5034094;28;20037;-76
2022/04/28 08:08:35;;;;;;;22.45;7.53;;;14.50;96.40;;;;;;5034555;28;20499;-78
2022/04/28 08:11:01;;;;;;;22.63;8.00;;;14.50;97.00;;;;;;5034649;28;20052;-79
2022/04/28 08:13:27;;;;;;;19.10;8.10;;;14.70;95.60;;;;;;5047996;28;20056;-78
2022/04/28 08:16:16;;;;;;;15.60;7.63;;;14.60;95.40;;;;;;5061700;28;20032;-78
2022/04/28 08:18:44;;;;;;;16.70;7.32;;;14.70;95.30;;;;;;5054344;28;20492;-78
2022/04/28 08:21:19;;;;;;;16.95;7.60;;;14.70;95.70;;;;;;5054172;28;20545;-79
2022/04/28 08:23:46;;;;;;;21.45;7.43;;;14.90;95.10;;;;;;5054318;28;20032;-78
2022/04/28 08:26:12;;;;;;;15.85;6.35;;;14.90;94.80;;;;;;5054484;28;20020;-79
2022/04/28 08:28:39;;;;;;;24.77;8.18;;;14.80;95.10;;;;;;5054340;28;20082;-79
2022/04/28 08:31:07;;;;;;;14.70;7.22;;;14.60;94.90;;;;;;5054250;28;20033;-79
2022/04/28 08:33:32;;;;;;;20.65;7.38;;;14.70;95.10;;;;;;5054254;28;20020;-79
2022/04/28 08:35:58;;;;;;;22.73;7.75;;;14.70;94.40;;;;;;5053991;28;20029;-78
2022/04/28 08:38:24;;;;;;;20.88;7.47;;;14.80;94.70;;;;;;5057605;28;20388;-78
2022/04/28 08:40:59;;;;;;;20.23;7.75;;;15.20;94.50;;;;;;5041425;28;20032;-79
2022/04/28 08:43:45;;;;;;;20.55;8.45;;;15.30;94.60;;;;;;5075544;28;20037;-79
2022/04/28 08:48:57;;;;;;;21.50;9.15;;;15.80;93.60;;;;;;5041438;28;20021;-78
2022/04/28 08:51:26;;;;;;;17.65;8.23;;;16.10;93.50;;;;;;5037781;28;20395;-78
2022/04/28 08:53:54;;;;;;;17.45;8.93;;;16.00;93.40;;;;;;5037856;28;20025;-79
2022/04/28 08:56:24;;;;;;;18.88;8.63;;;15.90;93.50;;;;;;5037516;28;20029;-79
2022/04/28 08:58:50;;;;;;;19.95;8.82;;;15.60;93.70;;;;;;5037787;28;20198;-79
2022/04/28 09:01:22;;;;;;;20.05;8.38;;;15.80;93.80;;;;;;5037785;28;20028;-80
2022/04/28 09:04:04;;;;;;;15.45;8.23;;;16.00;93.40;;;;;;5055242;28;20028;-79
2022/04/28 09:06:52;;;;;;;17.38;8.88;;;16.30;93.00;;;;;;5054983;28;20505;-80
2022/04/28 09:09:19;;;;;;;17.80;8.95;;;16.40;93.10;;;;;;5055700;28;20044;-80
2022/04/28 09:12:06;;;;;;;14.57;7.22;;;16.70;92.80;;;;;;5055676;28;20040;-80
2022/04/28 09:14:44;;;;;;;20.25;10.02;;;16.70;92.90;;;;;;5055244;28;20041;-80
2022/04/28 09:17:13;;;;;;;16.73;8.07;;;16.90;91.70;;;;;;5037231;28;20545;-80
2022/04/28 09:19:40;;;;;;;17.88;8.07;;;16.80;92.50;;;;;;5054814;28;20127;-80
2022/04/28 09:22:15;;;;;;;22.42;8.45;;;16.50;92.50;;;;;;5054788;28;20396;-80
2022/04/28 09:24:46;;;;;;;20.23;9.38;;;16.40;92.50;;;;;;5057078;28;20052;-80
2022/04/28 09:27:15;;;;;;;22.83;8.13;;;16.70;92.10;;;;;;5057185;28;20020;-80
2022/04/28 09:29:41;;;;;;;19.75;9.05;;;16.80;92.20;;;;;;5056881;28;20047;-80
2022/04/28 09:32:17;;;;;;;22.10;7.93;;;17.00;92.10;;;;;;5045057;28;20029;-80
2022/04/28 09:35:09;;;;;;;23.45;8.90;;;16.60;91.90;;;;;;5054678;28;20113;-80
2022/04/28 09:37:35;;;;;;;20.33;7.93;;;17.00;91.50;;;;;;5054839;28;20116;-80
2022/04/28 09:42:49;;;;;;;17.52;8.55;;;17.20;91.10;;;;;;5054810;28;20040;-80
2022/04/28 09:45:23;;;;;;;22.63;8.60;;;17.00;91.60;;;;;;5036936;28;20025;-80
2022/04/28 09:48:00;;;;;;;19.38;9.07;;;17.30;91.20;;;;;;5028746;28;20057;-78
2022/04/28 09:50:29;;;;;;;16.80;8.75;;;17.60;91.10;;;;;;5016507;28;20079;-80
2022/04/28 09:53:15;;;;;;;18.67;8.27;;;17.70;90.90;;;;;;5034538;28;20425;-80
2022/04/28 09:55:59;;;;;;;19.98;9.57;;;18.00;91.10;;;;;;5016884;28;20522;-79
2022/04/28 09:58:42;;;;;;;14.50;8.55;;;18.10;90.50;;;;;;5016415;28;20116;-79
2022/04/28 10:01:08;;;;;;;19.75;9.35;;;18.00;90.40;;;;;;5016354;28;20034;-80
2022/04/28 10:03:40;;;;;;;18.35;7.93;;;18.30;90.30;;;;;;5028530;28;20029;-80
2022/04/28 10:06:08;;;;;;;17.17;8.98;;;18.10;90.10;;;;;;5035990;28;20029;-79
2022/04/28 10:08:47;;;;;;;17.70;8.70;;;18.50;89.60;;;;;;5054473;28;20112;-80
2022/04/28 10:11:21;;;;;;;19.77;9.98;;;18.10;90.30;;;;;;5036085;28;20040;-80
2022/04/28 10:13:49;;;;;;;22.58;8.50;;;18.10;89.90;;;;;;5036353;28;20064;-80
2022/04/28 10:16:19;;;;;;;15.48;8.40;;;18.30;90.10;;;;;;5035865;28;20021;-79
2022/04/28 10:18:58;;;;;;;18.92;8.65;;;18.00;90.10;;;;;;5053803;28;20036;-79
2022/04/28 10:21:36;;;;;;;18.10;9.02;;;18.40;89.50;;;;;;5036071;28;20413;-80
2022/04/28 10:32:58;;;;;;;14.15;8.57;;;19.50;88.80;;;;;;5053567;28;20029;-81
2022/04/28 10:35:43;;;;;;;19.13;8.38;;;19.80;87.10;;;;;;5035867;28;20354;-81
2022/04/28 10:38:32;;;;;;;20.15;8.63;;;19.70;87.30;;;;;;5053621;28;20412;-80
2022/04/28 10:41:06;;;;;;;15.88;9.07;;;19.70;88.30;;;;;;5053705;28;20393;-80
2022/04/28 10:43:32;;;;;;;15.73;8.75;;;19.60;86.80;;;;;;5053398;28;20025;-79
2022/04/28 10:46:04;;;;;;;25.25;9.85;;;19.40;88.20;;;;;;5019001;28;20044;-80
2022/04/28 10:48:30;;;;;;;;;;;19.40;87.10;;;;;;5016165;28;20026;-79
2022/04/28 10:51:18;;;;;;;27.02;10.82;;;19.50;87.40;;;;;;5033402;28;20389;-80
2022/04/28 10:54:11;;;;;;;21.45;9.30;;;19.60;85.80;;;;;;5033357;28;20470;-81
2022/04/28 10:56:40;;;;;;;19.10;8.85;;;20.00;86.70;;;;;;5033629;28;20030;-81
2022/04/28 10:59:37;;;;;;;15.90;9.07;;;20.00;86.50;;;;;;5036210;28;20030;-80
2022/04/28 11:02:15;;;;;;;16.75;9.43;;;20.00;86.10;;;;;;5016015;28;20037;-80
2022/04/28 11:04:43;;;;;;;23.30;9.73;;;19.80;86.90;;;;;;5033837;28;20478;-81
2022/04/28 11:07:12;;;;;;;18.90;9.48;;;20.00;85.60;;;;;;5033368;28;20120;-80
2022/04/28 11:09:40;;;;;;;13.77;8.73;;;20.00;86.40;;;;;;5015199;28;20075;-81
2022/04/28 11:12:11;;;;;;;16.48;10.27;;;20.60;87.30;;;;;;5033138;28;20028;-81
2022/04/28 11:15:03;;;;;;;33.67;13.15;;;21.00;84.60;;;;;;5032962;28;20112;-81
2022/04/28 11:17:31;;;;;;;19.65;11.27;;;20.70;85.30;;;;;;5027099;28;20061;-81
2022/04/28 11:20:04;;;;;;;22.80;10.75;;;20.40;83.90;;;;;;5032938;28;20470;-80
2022/04/28 11:22:30;;;;;;;24.98;10.27;;;20.50;85.50;;;;;;5015110;28;20026;-80
2022/04/28 11:24:59;;;;;;;20.45;10.77;;;20.50;84.30;;;;;;5015575;28;20449;-81
2022/04/28 11:27:34;;;;;;;21.88;10.52;;;20.50;85.10;;;;;;5031563;28;20017;-81
2022/04/28 11:30:11;;;;;;;17.38;10.10;;;20.60;84.60;;;;;;5030799;28;20026;-81
2022/04/28 11:32:45;;;;;;;17.70;10.90;;;20.80;85.30;;;;;;5032917;28;20037;-81
2022/04/28 11:35:11;;;;;;;19.63;9.80;;;21.10;84.20;;;;;;5032883;28;20022;-82
2022/04/28 11:37:38;;;;;;;17.05;10.73;;;21.30;84.00;;;;;;5032943;28;20363;-81
2022/04/28 11:40:06;;;;;;;18.05;10.90;;;21.40;82.80;;;;;;5032656;28;20037;-82
2022/04/28 11:42:33;;;;;;;17.50;9.80;;;21.30;82.30;;;;;;5014848;28;20045;-81
2022/04/28 11:45:00;;;;;;;20.10;9.57;;;21.60;84.20;;;;;;5015426;28;20026;-81
2022/04/28 11:47:27;;;;;;;15.52;10.18;;;21.90;82.70;;;;;;5036608;28;20021;-81
2022/04/28 11:50:03;;;;;;;26.45;9.90;;;22.50;80.70;;;;;;5052672;28;20122;-82
2022/04/28 11:52:34;;;;;;;19.95;10.30;;;22.60;80.70;;;;;;5052767;28;20044;-82
2022/04/28 11:55:05;;;;;;;19.30;10.50;;;21.90;81.10;;;;;;5052581;28;20025;-82
2022/04/28 11:57:32;;;;;;;22.30;11.05;;;21.90;81.70;;;;;;5052304;28;20029;-81
2022/04/28 11:59:59;;;;;;;16.70;9.88;;;22.20;80.40;;;;;;5052319;28;20170;-81
2022/04/28 12:02:29;;;;;;;17.02;10.45;;;22.20;79.30;;;;;;5052426;28;20488;-82
2022/04/28 12:05:00;;;;;;;20.10;10.32;;;22.40;79.10;;;;;;5052426;28;20029;-82
2022/04/28 12:07:29;;;;;;;18.58;10.27;;;23.00;78.70;;;;;;5018178;28;20067;-82
2022/04/28 12:15:26;;;;;;;20.52;9.55;;;22.40;79.90;;;;;;5038479;28;20425;-82
2022/04/28 12:20:52;;;;;;;19.55;9.30;;;22.40;79.00;;;;;;5055864;28;20060;-80
2022/04/28 12:23:31;;;;;;;15.77;9.25;;;23.10;79.70;;;;;;5056161;28;20170;-81
2022/04/28 12:26:05;;;;;;;16.60;9.68;;;23.90;78.40;;;;;;5055440;28;20032;-79
2022/04/28 12:28:35;;;;;;;25.48;11.27;;;23.60;77.10;;;;;;5038440;28;20465;-82
2022/04/28 12:31:04;;;;;;;19.42;10.10;;;24.00;76.90;;;;;;5055865;28;20032;-82
2022/04/28 12:33:35;;;;;;;18.02;9.55;;;23.10;75.90;;;;;;5056178;28;20469;-82
2022/04/28 12:36:03;;;;;;;23.63;10.10;;;23.40;76.40;;;;;;5038450;28;20072;-86
2022/04/28 12:38:35;;;;;;;15.70;10.10;;;23.40;77.00;;;;;;5055902;28;20071;-77
2022/04/28 12:41:17;;;;;;;16.20;9.27;;;23.60;75.90;;;;;;5055458;28;20037;-76
2022/04/28 12:43:48;;;;;;;15.18;9.40;;;23.70;76.30;;;;;;5047429;28;20124;-76
2022/04/28 12:46:19;;;;;;;21.92;8.88;;;24.10;75.60;;;;;;5049554;28;20025;-76
2022/04/28 12:48:54;;;;;;;19.65;9.40;;;24.10;75.50;;;;;;5049798;28;20048;-77
2022/04/28 12:51:22;;;;;;;20.02;9.50;;;24.80;74.50;;;;;;5040979;28;20061;-76
2022/04/28 12:53:53;;;;;;;17.83;9.18;;;25.40;72.60;;;;;;5033759;28;20473;-76
2022/04/28 12:56:32;;;;;;;16.67;11.05;;;24.70;72.90;;;;;;5040495;28;20021;-77
2022/04/28 12:59:04;;;;;;;20.98;9.93;;;25.20;73.30;;;;;;5042223;28;20044;-73
2022/04/28 13:01:31;;;;;;;16.80;9.38;;;25.20;73.00;;;;;;5069339;28;20033;-76
2022/04/28 13:04:12;;;;;;;17.00;8.98;;;25.10;73.20;;;;;;5055370;28;20047;-76
2022/04/28 13:06:39;;;;;;;16.73;9.07;;;25.30;71.70;;;;;;5065425;28;20044;-77
2022/04/28 13:09:09;;;;;;;20.15;9.75;;;25.70;71.30;;;;;;5065006;28;20124;-78
2022/04/28 13:11:38;;;;;;;18.30;9.43;;;26.20;71.00;;;;;;5058497;28;20064;-77
2022/04/28 13:14:05;;;;;;;16.48;8.50;;;25.90;71.40;;;;;;5052428;28;20150;-77
2022/04/28 13:16:32;;;;;;;16.08;9.60;;;26.00;71.50;;;;;;5041787;28;20024;-76
2022/04/28 13:18:58;;;;;;;18.45;9.35;;;25.70;71.30;;;;;;5036156;28;20167;-73
2022/04/28 13:21:25;;;;;;;17.10;9.93;;;26.20;71.00;;;;;;5053685;28;20108;-77
2022/04/28 13:23:51;;;;;;;15.75;9.23;;;26.00;70.30;;;;;;5054703;28;20082;-77
2022/04/28 13:26:19;;;;;;;14.70;9.13;;;25.60;70.30;;;;;;5048881;28;20029;-77
2022/04/28 13:28:47;;;;;;;18.50;9.05;;;26.20;69.70;;;;;;5043548;28;20095;-76
2022/04/28 13:31:13;;;;;;;15.93;9.10;;;26.30;70.40;;;;;;5041195;28;20022;-76
2022/04/28 13:33:40;;;;;;;18.65;9.48;;;27.20;70.20;;;;;;5050677;28;20377;-73
2022/04/28 13:36:06;;;;;;;12.55;8.57;;;27.10;69.20;;;;;;5037986;28;20028;-76
2022/04/28 13:38:33;;;;;;;18.15;9.20;;;27.70;69.50;;;;;;5060726;28;20406;-77
2022/04/28 13:40:59;;;;;;;15.48;10.05;;;27.70;68.10;;;;;;5063037;28;20040;-78
2022/04/28 13:43:25;;;;;;;17.23;8.77;;;26.80;68.40;;;;;;5054004;28;20005;-77